Time;durP1;ratioP1;P1;durP2;ratioP2;P2;SDS_P1;SDS_P2;PMS_P1;PMS_P2;Temp;Humidity;BMP_temperature;BMP_pressure;BME280_temperature;BME280_humidity;BME280_pressure;Samples;Min_cycle;Max_cycle;Signal;HPM_P1;HPM_P2
2023/12/08 00:00:15;;;;;;;16.92;11.88;;;;;;;;;;5050545;28;20061;-88
2023/12/08 00:02:41;;;;;;;19.27;11.52;;;;;;;;;;5049291;28;20114;-88
2023/12/08 00:05:08;;;;;;;17.98;12.05;;;;;;;;;;5033851;28;20575;-88
2023/12/08 00:07:34;;;;;;;16.67;11.85;;;;;;;;;;5046796;28;20075;-87
2023/12/08 00:10:00;;;;;;;17.55;11.93;;;;;;;;;;5062290;28;20114;-88
2023/12/08 00:12:26;;;;;;;16.77;12.10;;;;;;;;;;5049784;28;20064;-88
2023/12/08 00:14:52;;;;;;;15.60;11.43;;;;;;;;;;5065991;28;20132;-88
2023/12/08 00:17:18;;;;;;;15.48;11.48;;;;;;;;;;5069900;28;20052;-87
2023/12/08 00:19:46;;;;;;;17.45;12.27;;;;;;;;;;5061631;28;20152;-87
2023/12/08 00:22:12;;;;;;;20.80;12.23;;;;;;;;;;5032627;28;20045;-88
2023/12/08 00:24:38;;;;;;;17.70;12.10;;;;;;;;;;5069735;28;20524;-88
2023/12/08 00:27:05;;;;;;;20.85;12.48;;;;;;;;;;5056341;28;20036;-87
2023/12/08 00:29:31;;;;;;;19.13;12.20;;;;;;;;;;5072544;28;20047;-87
2023/12/08 00:31:57;;;;;;;19.13;12.73;;;;;;;;;;5090958;28;20051;-87
2023/12/08 00:34:23;;;;;;;15.93;11.57;;;;;;;;;;5071957;28;20036;-87
2023/12/08 00:36:49;;;;;;;17.50;12.57;;;;;;;;;;5055669;28;20046;-88
2023/12/08 00:39:15;;;;;;;19.67;12.60;;;;;;;;;;5055523;28;20127;-88
2023/12/08 00:41:41;;;;;;;19.98;13.65;;;;;;;;;;5071352;28;20561;-87
2023/12/08 00:44:08;;;;;;;18.10;12.52;;;;;;;;;;5071739;28;20043;-87
2023/12/08 00:46:34;;;;;;;21.17;13.27;;;;;;;;;;5072234;28;20044;-88
2023/12/08 00:49:00;;;;;;;18.85;12.35;;;;;;;;;;5072557;28;20044;-88
2023/12/08 00:51:26;;;;;;;19.35;12.65;;;;;;;;;;5071818;28;20044;-86
2023/12/08 00:53:52;;;;;;;17.33;12.63;;;;;;;;;;5050828;28;20042;-88
2023/12/08 00:56:18;;;;;;;20.92;13.68;;;;;;;;;;5059760;28;20127;-87
2023/12/08 00:58:44;;;;;;;17.55;12.25;;;;;;;;;;5071612;28;20048;-88
2023/12/08 01:01:11;;;;;;;21.60;13.85;;;;;;;;;;5072019;28;20047;-87
2023/12/08 01:03:40;;;;;;;21.88;13.43;;;;;;;;;;5062752;28;20123;-87
2023/12/08 01:06:06;;;;;;;20.10;13.00;;;;;;;;;;5064028;28;20419;-87
2023/12/08 01:08:32;;;;;;;20.50;12.55;;;;;;;;;;5070385;28;20470;-88
2023/12/08 01:10:58;;;;;;;19.55;13.50;;;;;;;;;;5056011;28;20486;-88
2023/12/08 01:13:24;;;;;;;22.83;14.20;;;;;;;;;;5071652;28;20039;-87
2023/12/08 01:15:50;;;;;;;21.02;13.98;;;;;;;;;;5071616;28;20051;-88
2023/12/08 01:18:16;;;;;;;19.48;13.25;;;;;;;;;;5070470;28;20063;-88
2023/12/08 01:20:42;;;;;;;21.10;13.25;;;;;;;;;;5071298;28;20082;-87
2023/12/08 01:23:08;;;;;;;20.95;13.63;;;;;;;;;;5088564;28;20145;-88
2023/12/08 01:25:35;;;;;;;20.02;13.63;;;;;;;;;;5071222;28;20039;-89
2023/12/08 01:28:01;;;;;;;18.58;13.18;;;;;;;;;;5071800;28;20444;-88
2023/12/08 01:30:27;;;;;;;24.65;14.32;;;;;;;;;;5071673;28;20051;-87
2023/12/08 01:32:53;;;;;;;20.45;13.40;;;;;;;;;;5054837;28;20052;-88
2023/12/08 01:35:19;;;;;;;21.92;13.57;;;;;;;;;;5072142;28;20047;-88
2023/12/08 01:37:45;;;;;;;20.30;14.20;;;;;;;;;;5068793;28;20048;-88
2023/12/08 01:40:11;;;;;;;24.63;14.40;;;;;;;;;;5051799;28;20048;-88
2023/12/08 01:42:38;;;;;;;24.17;14.52;;;;;;;;;;5052004;28;20529;-88
2023/12/08 01:45:04;;;;;;;26.05;15.15;;;;;;;;;;5052166;28;20427;-89
2023/12/08 01:47:31;;;;;;;23.13;14.35;;;;;;;;;;5051462;28;20400;-88
2023/12/08 01:49:57;;;;;;;22.95;14.30;;;;;;;;;;5034802;28;20046;-86
2023/12/08 01:52:23;;;;;;;23.35;14.48;;;;;;;;;;5062525;28;20048;-87
2023/12/08 01:54:51;;;;;;;21.27;13.65;;;;;;;;;;5053909;28;20040;-88
2023/12/08 01:57:18;;;;;;;21.10;13.45;;;;;;;;;;5071397;28;20048;-87
2023/12/08 01:59:44;;;;;;;23.40;14.93;;;;;;;;;;5055008;28;20048;-88
2023/12/08 02:02:10;;;;;;;22.85;14.48;;;;;;;;;;5070985;28;20090;-89
2023/12/08 02:04:36;;;;;;;24.60;15.38;;;;;;;;;;5071754;28;20044;-88
2023/12/08 02:07:02;;;;;;;19.90;13.48;;;;;;;;;;5071939;28;20440;-88
2023/12/08 02:09:28;;;;;;;21.08;13.80;;;;;;;;;;5049697;28;20052;-88
2023/12/08 02:11:54;;;;;;;19.75;13.70;;;;;;;;;;5051379;28;20048;-88
2023/12/08 02:14:20;;;;;;;22.85;15.40;;;;;;;;;;5050413;28;20040;-88
2023/12/08 02:16:51;;;;;;;20.15;13.65;;;;;;;;;;5051735;28;20088;-88
2023/12/08 02:19:18;;;;;;;23.50;14.57;;;;;;;;;;5051898;28;20113;-89
2023/12/08 02:21:46;;;;;;;21.80;14.77;;;;;;;;;;5056526;28;20896;-88
2023/12/08 02:24:12;;;;;;;22.17;15.05;;;;;;;;;;5071497;28;20146;-88
2023/12/08 02:26:38;;;;;;;20.88;14.52;;;;;;;;;;5070729;28;20747;-88
2023/12/08 02:29:08;;;;;;;23.48;15.25;;;;;;;;;;5071064;28;20047;-89
2023/12/08 02:31:57;;;;;;;23.08;15.02;;;;;;;;;;5071548;28;20048;-88
2023/12/08 02:34:26;;;;;;;23.38;14.02;;;;;;;;;;5069409;28;20040;-88
2023/12/08 02:36:53;;;;;;;20.73;13.98;;;;;;;;;;5088867;28;20506;-87
2023/12/08 02:39:19;;;;;;;20.85;14.75;;;;;;;;;;5070856;28;20044;-88
2023/12/08 02:41:46;;;;;;;21.55;14.38;;;;;;;;;;5070749;28;20054;-88
2023/12/08 02:44:12;;;;;;;23.02;15.13;;;;;;;;;;5054333;28;20052;-88
2023/12/08 02:46:38;;;;;;;21.02;14.52;;;;;;;;;;5071050;28;20063;-87
2023/12/08 02:49:04;;;;;;;21.73;14.38;;;;;;;;;;5070934;28;20228;-87
2023/12/08 02:51:30;;;;;;;22.98;14.90;;;;;;;;;;5086877;28;20406;-88
2023/12/08 02:53:56;;;;;;;21.40;14.50;;;;;;;;;;5070487;28;20044;-88
2023/12/08 02:56:22;;;;;;;24.48;14.60;;;;;;;;;;5069320;28;20057;-88
2023/12/08 02:58:49;;;;;;;21.08;13.63;;;;;;;;;;5070956;28;20040;-88
2023/12/08 03:01:15;;;;;;;21.65;14.27;;;;;;;;;;5073076;28;20472;-88
2023/12/08 03:03:47;;;;;;;23.33;14.32;;;;;;;;;;5057909;28;20080;-88
2023/12/08 03:06:13;;;;;;;23.05;15.00;;;;;;;;;;5041518;28;20052;-88
2023/12/08 03:08:39;;;;;;;23.75;15.10;;;;;;;;;;5057385;28;20044;-88
2023/12/08 03:11:05;;;;;;;21.52;15.07;;;;;;;;;;5071298;28;20144;-88
2023/12/08 03:13:31;;;;;;;22.55;14.68;;;;;;;;;;5061332;28;20052;-88
2023/12/08 03:15:57;;;;;;;23.20;15.30;;;;;;;;;;5054766;28;20048;-87
2023/12/08 03:18:23;;;;;;;21.98;14.50;;;;;;;;;;5038223;28;20098;-88
2023/12/08 03:20:49;;;;;;;22.73;13.60;;;;;;;;;;5069388;28;20040;-87
2023/12/08 03:23:15;;;;;;;20.23;13.82;;;;;;;;;;5073634;28;20067;-88
2023/12/08 03:25:41;;;;;;;23.02;13.75;;;;;;;;;;5074321;28;20493;-88
2023/12/08 03:28:07;;;;;;;22.90;14.70;;;;;;;;;;5072900;28;20143;-88
2023/12/08 03:30:33;;;;;;;20.88;13.65;;;;;;;;;;5073284;28;20044;-88
2023/12/08 03:32:58;;;;;;;21.20;13.32;;;;;;;;;;5073949;28;20051;-88
2023/12/08 03:35:24;;;;;;;19.70;13.27;;;;;;;;;;5072960;28;20480;-87
2023/12/08 03:37:50;;;;;;;22.65;14.75;;;;;;;;;;5073585;28;20040;-87
2023/12/08 03:40:17;;;;;;;22.65;14.63;;;;;;;;;;5046810;28;20090;-88
2023/12/08 03:42:43;;;;;;;21.77;14.00;;;;;;;;;;5054012;28;20041;-87
2023/12/08 03:45:09;;;;;;;23.45;13.88;;;;;;;;;;5054256;28;20051;-88
2023/12/08 03:47:35;;;;;;;22.85;15.13;;;;;;;;;;5054236;28;20044;-88
2023/12/08 03:50:01;;;;;;;21.73;14.07;;;;;;;;;;5038316;28;20041;-89
2023/12/08 03:52:27;;;;;;;20.58;13.27;;;;;;;;;;5090889;28;20040;-88
2023/12/08 03:54:53;;;;;;;21.25;13.23;;;;;;;;;;5074050;28;20040;-87
2023/12/08 03:57:19;;;;;;;22.88;14.77;;;;;;;;;;5073803;28;20811;-88
2023/12/08 03:59:45;;;;;;;24.70;15.07;;;;;;;;;;5057736;28;20044;-88
2023/12/08 04:02:11;;;;;;;24.60;14.80;;;;;;;;;;5074367;28;20071;-87
2023/12/08 04:04:37;;;;;;;24.63;14.75;;;;;;;;;;5057250;28;20040;-88
2023/12/08 04:07:03;;;;;;;24.38;15.48;;;;;;;;;;5039823;28;20110;-88
2023/12/08 04:09:30;;;;;;;25.02;15.15;;;;;;;;;;5051369;28;20756;-88
2023/12/08 04:11:56;;;;;;;23.42;14.25;;;;;;;;;;5056880;28;20130;-88
2023/12/08 04:14:22;;;;;;;22.23;14.73;;;;;;;;;;5074379;28;20112;-89
2023/12/08 04:16:50;;;;;;;22.10;14.30;;;;;;;;;;5072557;28;20083;-88
2023/12/08 04:19:18;;;;;;;24.77;15.00;;;;;;;;;;5073239;28;20044;-88
2023/12/08 04:21:44;;;;;;;27.85;14.38;;;;;;;;;;5072300;28;20098;-87
2023/12/08 04:24:10;;;;;;;23.88;15.38;;;;;;;;;;5060706;28;20430;-89
2023/12/08 04:26:42;;;;;;;24.50;15.25;;;;;;;;;;5037937;28;20409;-88
2023/12/08 04:29:08;;;;;;;25.35;14.98;;;;;;;;;;5073078;28;20044;-87
2023/12/08 04:31:35;;;;;;;24.20;14.68;;;;;;;;;;5056556;28;20405;-88
2023/12/08 04:34:01;;;;;;;24.85;14.68;;;;;;;;;;5056958;28;20513;-89
2023/12/08 04:36:27;;;;;;;24.63;14.82;;;;;;;;;;5058514;28;20067;-88
2023/12/08 04:38:53;;;;;;;25.15;15.10;;;;;;;;;;5059360;28;20048;-87
2023/12/08 04:41:19;;;;;;;24.80;15.77;;;;;;;;;;5072451;28;20046;-88
2023/12/08 04:43:45;;;;;;;23.38;14.20;;;;;;;;;;5073056;28;20052;-87
2023/12/08 04:46:11;;;;;;;26.58;14.95;;;;;;;;;;5053611;28;20456;-88
2023/12/08 04:48:37;;;;;;;22.77;13.95;;;;;;;;;;5072725;28;20500;-88
2023/12/08 04:51:04;;;;;;;22.50;14.80;;;;;;;;;;5065823;28;20157;-87
2023/12/08 04:53:30;;;;;;;25.52;15.20;;;;;;;;;;5052355;28;20045;-89
2023/12/08 04:55:56;;;;;;;25.33;15.23;;;;;;;;;;5052930;28;20055;-88
2023/12/08 04:58:22;;;;;;;28.92;16.05;;;;;;;;;;5053266;28;20182;-88
2023/12/08 05:00:49;;;;;;;24.92;15.05;;;;;;;;;;5072585;28;20044;-88
2023/12/08 05:03:15;;;;;;;25.15;15.35;;;;;;;;;;5052796;28;20052;-87
2023/12/08 05:05:41;;;;;;;25.42;15.65;;;;;;;;;;5052296;28;20044;-88
2023/12/08 05:08:07;;;;;;;28.95;16.27;;;;;;;;;;5035678;28;20101;-87
2023/12/08 05:10:33;;;;;;;25.83;15.32;;;;;;;;;;5052197;28;20052;-87
2023/12/08 05:13:00;;;;;;;26.83;15.65;;;;;;;;;;5064010;28;20063;-86
2023/12/08 05:15:26;;;;;;;26.77;15.80;;;;;;;;;;5071544;28;20048;-87
2023/12/08 05:17:52;;;;;;;26.42;15.95;;;;;;;;;;5035315;28;20049;-87
2023/12/08 05:20:18;;;;;;;26.42;14.77;;;;;;;;;;5051839;28;20056;-88
2023/12/08 05:22:45;;;;;;;25.35;15.65;;;;;;;;;;5050735;28;20064;-87
2023/12/08 05:25:11;;;;;;;24.40;15.43;;;;;;;;;;5050947;28;20056;-86
2023/12/08 05:27:37;;;;;;;29.17;16.30;;;;;;;;;;5070225;28;20039;-87
2023/12/08 05:30:03;;;;;;;25.23;15.68;;;;;;;;;;5071510;28;20051;-87
2023/12/08 05:32:29;;;;;;;30.73;17.40;;;;;;;;;;5053285;28;20390;-87
2023/12/08 05:34:55;;;;;;;30.60;15.90;;;;;;;;;;5055136;28;20069;-87
2023/12/08 05:37:21;;;;;;;26.92;15.68;;;;;;;;;;5070290;28;20490;-87
2023/12/08 05:39:48;;;;;;;27.58;15.98;;;;;;;;;;5071262;28;20052;-86
2023/12/08 05:42:14;;;;;;;28.20;15.73;;;;;;;;;;5069394;28;20036;-87
2023/12/08 05:44:40;;;;;;;27.20;16.13;;;;;;;;;;5051204;28;20370;-88
2023/12/08 05:47:06;;;;;;;26.77;16.23;;;;;;;;;;5051165;28;20055;-86
2023/12/08 05:49:34;;;;;;;26.08;16.55;;;;;;;;;;5051423;28;20497;-87
2023/12/08 05:52:00;;;;;;;28.88;18.75;;;;;;;;;;5050473;28;20105;-87
2023/12/08 05:54:26;;;;;;;29.10;17.45;;;;;;;;;;5051612;28;20177;-87
2023/12/08 05:56:52;;;;;;;27.10;16.27;;;;;;;;;;5063211;28;20512;-87
2023/12/08 05:59:18;;;;;;;27.80;16.20;;;;;;;;;;5069772;28;20040;-88
2023/12/08 06:01:44;;;;;;;28.85;16.40;;;;;;;;;;5070697;28;20469;-87
2023/12/08 06:04:10;;;;;;;29.45;16.63;;;;;;;;;;5071251;28;20044;-87
2023/12/08 06:06:36;;;;;;;29.63;16.17;;;;;;;;;;5070495;28;20094;-88
2023/12/08 06:09:02;;;;;;;29.27;16.60;;;;;;;;;;5071080;28;20083;-87
2023/12/08 06:11:28;;;;;;;29.25;17.08;;;;;;;;;;5054489;28;20039;-87
2023/12/08 06:13:54;;;;;;;27.40;15.90;;;;;;;;;;5063078;28;20059;-87
2023/12/08 06:16:20;;;;;;;28.75;16.73;;;;;;;;;;5050885;28;20040;-87
2023/12/08 06:18:46;;;;;;;27.00;16.27;;;;;;;;;;5051101;28;20470;-87
2023/12/08 06:21:12;;;;;;;26.92;16.05;;;;;;;;;;5043386;28;20043;-87
2023/12/08 06:23:38;;;;;;;29.98;16.17;;;;;;;;;;5069743;28;20066;-86
2023/12/08 06:26:04;;;;;;;29.77;17.17;;;;;;;;;;5067938;28;20120;-87
2023/12/08 06:28:30;;;;;;;26.98;16.70;;;;;;;;;;5069847;28;20059;-87
2023/12/08 06:30:56;;;;;;;27.15;17.27;;;;;;;;;;5070690;28;20414;-87
2023/12/08 06:33:22;;;;;;;27.67;16.45;;;;;;;;;;5069786;28;20055;-86
2023/12/08 06:35:49;;;;;;;28.67;16.50;;;;;;;;;;5073349;28;20056;-87
2023/12/08 06:38:15;;;;;;;27.55;15.25;;;;;;;;;;5071725;28;20517;-86
2023/12/08 06:40:41;;;;;;;27.23;16.10;;;;;;;;;;5066760;28;20135;-88
2023/12/08 06:43:07;;;;;;;29.02;15.70;;;;;;;;;;5068451;28;20123;-86
2023/12/08 06:45:34;;;;;;;26.90;16.35;;;;;;;;;;5068351;28;20044;-86
2023/12/08 06:48:00;;;;;;;27.45;15.75;;;;;;;;;;5068829;28;20036;-86
2023/12/08 06:50:26;;;;;;;27.58;15.73;;;;;;;;;;5057968;28;20393;-86
2023/12/08 06:52:52;;;;;;;28.33;15.60;;;;;;;;;;5048357;28;20036;-86
2023/12/08 06:55:18;;;;;;;27.42;15.63;;;;;;;;;;5091553;28;20044;-86
2023/12/08 06:57:44;;;;;;;29.58;17.10;;;;;;;;;;5056184;28;20040;-86
2023/12/08 07:00:11;;;;;;;27.02;16.92;;;;;;;;;;5055353;28;20091;-87
2023/12/08 07:02:40;;;;;;;29.73;16.35;;;;;;;;;;5057476;28;20040;-86
2023/12/08 07:05:06;;;;;;;30.98;16.70;;;;;;;;;;5069168;28;20131;-85
2023/12/08 07:07:32;;;;;;;28.83;17.27;;;;;;;;;;5053723;28;20051;-86
2023/12/08 07:09:58;;;;;;;28.48;17.40;;;;;;;;;;5071277;28;20123;-85
2023/12/08 07:12:24;;;;;;;29.23;16.30;;;;;;;;;;5061796;28;20135;-85
2023/12/08 07:14:50;;;;;;;28.65;15.73;;;;;;;;;;5054088;28;20040;-85
2023/12/08 07:17:16;;;;;;;28.85;15.90;;;;;;;;;;5070124;28;20048;-85
2023/12/08 07:19:42;;;;;;;29.83;16.38;;;;;;;;;;5068659;28;20101;-86
2023/12/08 07:22:08;;;;;;;30.73;16.35;;;;;;;;;;5068310;28;20040;-85
2023/12/08 07:24:37;;;;;;;28.55;15.48;;;;;;;;;;5052303;28;20053;-85
2023/12/08 07:27:03;;;;;;;31.05;17.83;;;;;;;;;;5068558;28;20055;-85
2023/12/08 07:29:29;;;;;;;26.85;15.07;;;;;;;;;;5087827;28;20036;-86
2023/12/08 07:31:56;;;;;;;29.85;16.45;;;;;;;;;;5058484;28;20044;-86
2023/12/08 07:34:22;;;;;;;29.17;16.45;;;;;;;;;;5068327;28;20101;-86
2023/12/08 07:36:48;;;;;;;30.42;16.20;;;;;;;;;;5086342;28;20490;-86
2023/12/08 07:39:15;;;;;;;27.05;16.10;;;;;;;;;;5056319;28;20185;-84
2023/12/08 07:41:43;;;;;;;27.85;16.30;;;;;;;;;;5061020;28;20079;-84
2023/12/08 07:44:09;;;;;;;30.10;16.40;;;;;;;;;;5062052;28;20414;-84
2023/12/08 07:46:35;;;;;;;29.88;16.70;;;;;;;;;;5046628;28;20093;-85
2023/12/08 07:49:02;;;;;;;28.00;16.92;;;;;;;;;;5040907;28;20130;-84
2023/12/08 07:51:28;;;;;;;31.17;16.30;;;;;;;;;;5054941;28;20056;-84
2023/12/08 07:53:54;;;;;;;30.70;17.10;;;;;;;;;;5054417;28;20040;-85
2023/12/08 07:56:22;;;;;;;32.10;17.33;;;;;;;;;;5054937;28;20437;-83
2023/12/08 07:58:49;;;;;;;30.17;17.77;;;;;;;;;;5065657;28;20060;-85
2023/12/08 08:01:15;;;;;;;29.48;16.73;;;;;;;;;;5060375;28;20056;-85
2023/12/08 08:03:42;;;;;;;26.27;15.73;;;;;;;;;;5063035;28;20044;-85
2023/12/08 08:06:09;;;;;;;28.48;15.93;;;;;;;;;;5051170;28;20046;-85
2023/12/08 08:08:36;;;;;;;30.80;16.92;;;;;;;;;;5053520;28;20059;-84
2023/12/08 08:11:02;;;;;;;29.35;16.60;;;;;;;;;;5072443;28;20047;-85
2023/12/08 08:13:28;;;;;;;27.95;16.38;;;;;;;;;;5064357;28;20048;-86
2023/12/08 08:15:54;;;;;;;27.02;15.50;;;;;;;;;;5051439;28;20044;-85
2023/12/08 08:18:20;;;;;;;28.85;16.50;;;;;;;;;;5052363;28;20392;-83
2023/12/08 08:20:46;;;;;;;29.77;17.13;;;;;;;;;;5052338;28;20045;-85
2023/12/08 08:23:12;;;;;;;33.95;16.98;;;;;;;;;;5066834;28;20055;-83
2023/12/08 08:25:38;;;;;;;25.73;15.68;;;;;;;;;;5051628;28;20052;-85
2023/12/08 08:28:04;;;;;;;26.48;15.93;;;;;;;;;;5051087;28;20056;-82
2023/12/08 08:30:30;;;;;;;28.17;16.23;;;;;;;;;;5063125;28;20036;-84
2023/12/08 08:32:56;;;;;;;28.63;16.58;;;;;;;;;;5048781;28;20086;-85
2023/12/08 08:35:22;;;;;;;32.13;17.25;;;;;;;;;;5034539;28;20048;-84
2023/12/08 08:37:48;;;;;;;30.00;16.80;;;;;;;;;;5034144;28;20071;-84
2023/12/08 08:40:15;;;;;;;28.80;16.88;;;;;;;;;;5051191;28;20118;-84
2023/12/08 08:42:41;;;;;;;28.98;17.02;;;;;;;;;;5051178;28;20123;-85
2023/12/08 08:45:08;;;;;;;31.40;16.60;;;;;;;;;;5035366;28;20123;-84
2023/12/08 08:47:34;;;;;;;25.35;16.10;;;;;;;;;;5059251;28;20089;-85
2023/12/08 08:50:00;;;;;;;26.13;15.25;;;;;;;;;;5071305;28;20040;-83
2023/12/08 08:52:26;;;;;;;25.58;15.45;;;;;;;;;;5070652;28;20048;-85
2023/12/08 08:54:52;;;;;;;28.08;16.40;;;;;;;;;;5070975;28;20135;-86
2023/12/08 08:57:18;;;;;;;26.60;15.85;;;;;;;;;;5068600;28;20131;-86
2023/12/08 08:59:44;;;;;;;28.00;16.58;;;;;;;;;;5070623;28;20048;-85
2023/12/08 09:02:10;;;;;;;28.13;16.33;;;;;;;;;;5071008;28;20048;-85
2023/12/08 09:04:36;;;;;;;27.23;16.48;;;;;;;;;;5062775;28;20051;-85
2023/12/08 09:07:02;;;;;;;28.35;16.55;;;;;;;;;;5067124;28;20084;-85
2023/12/08 09:09:28;;;;;;;28.50;16.52;;;;;;;;;;5059487;28;20056;-86
2023/12/08 09:11:54;;;;;;;28.65;17.00;;;;;;;;;;5064856;28;20037;-86
2023/12/08 09:14:20;;;;;;;26.48;16.35;;;;;;;;;;5068831;28;20127;-86
2023/12/08 09:16:49;;;;;;;29.63;16.75;;;;;;;;;;5071240;28;20097;-86
2023/12/08 09:19:15;;;;;;;28.65;16.10;;;;;;;;;;5059669;28;20479;-85
2023/12/08 09:21:41;;;;;;;27.30;15.88;;;;;;;;;;5066724;28;20571;-86
2023/12/08 09:24:07;;;;;;;25.40;15.18;;;;;;;;;;5052719;28;20053;-87
2023/12/08 09:26:33;;;;;;;28.13;17.40;;;;;;;;;;5054783;28;20052;-86
2023/12/08 09:29:00;;;;;;;26.83;16.98;;;;;;;;;;5058165;28;20108;-85
2023/12/08 09:31:26;;;;;;;26.10;16.15;;;;;;;;;;5046639;28;20125;-86
2023/12/08 09:33:52;;;;;;;28.20;16.33;;;;;;;;;;5046846;28;20363;-85
2023/12/08 09:36:19;;;;;;;27.92;16.77;;;;;;;;;;5080362;28;20156;-88
2023/12/08 09:38:45;;;;;;;27.35;15.68;;;;;;;;;;5050316;28;20036;-87
2023/12/08 09:41:13;;;;;;;28.55;16.67;;;;;;;;;;5051515;28;20049;-88
2023/12/08 09:43:41;;;;;;;29.27;16.95;;;;;;;;;;5053041;28;20134;-88
2023/12/08 09:46:10;;;;;;;25.30;16.20;;;;;;;;;;5069899;28;20048;-87
2023/12/08 09:48:37;;;;;;;28.67;16.58;;;;;;;;;;5067330;28;20045;-88
2023/12/08 09:51:04;;;;;;;27.80;15.95;;;;;;;;;;5067775;28;20049;-88
2023/12/08 09:53:31;;;;;;;28.48;17.35;;;;;;;;;;5067311;28;20048;-87
2023/12/08 09:55:57;;;;;;;29.75;16.65;;;;;;;;;;5068465;28;20052;-89
2023/12/08 09:58:25;;;;;;;28.08;16.77;;;;;;;;;;5059636;28;20041;-88
2023/12/08 10:00:53;;;;;;;26.92;16.02;;;;;;;;;;5065847;28;20060;-87
2023/12/08 10:03:19;;;;;;;28.35;17.17;;;;;;;;;;5065601;28;20835;-88
2023/12/08 10:05:46;;;;;;;28.13;16.83;;;;;;;;;;5065835;28;20465;-88
2023/12/08 10:08:12;;;;;;;30.17;17.98;;;;;;;;;;5066540;28;20041;-89
2023/12/08 10:10:40;;;;;;;27.15;17.60;;;;;;;;;;5052598;28;20143;-88
2023/12/08 10:13:06;;;;;;;28.90;16.83;;;;;;;;;;5052796;28;20093;-88
2023/12/08 10:15:32;;;;;;;28.45;16.35;;;;;;;;;;5052636;28;20504;-88
2023/12/08 10:17:58;;;;;;;28.58;17.33;;;;;;;;;;5052610;28;20048;-88
2023/12/08 10:20:24;;;;;;;28.35;17.67;;;;;;;;;;5069817;28;20040;-88
2023/12/08 10:22:52;;;;;;;30.48;18.08;;;;;;;;;;5074260;28;20514;-88
2023/12/08 10:25:19;;;;;;;31.95;17.48;;;;;;;;;;5059276;28;20051;-88
2023/12/08 10:27:52;;;;;;;28.65;17.60;;;;;;;;;;5058903;28;20398;-88
2023/12/08 10:30:23;;;;;;;28.52;16.65;;;;;;;;;;5062115;28;20040;-88
2023/12/08 10:32:49;;;;;;;31.40;18.35;;;;;;;;;;5038248;28;20042;-88
2023/12/08 10:35:15;;;;;;;28.95;18.35;;;;;;;;;;5053837;28;20506;-88
2023/12/08 10:37:42;;;;;;;28.70;18.00;;;;;;;;;;5054262;28;20105;-88
2023/12/08 10:40:09;;;;;;;31.38;18.30;;;;;;;;;;5053472;28;20036;-88
2023/12/08 10:42:35;;;;;;;30.35;17.20;;;;;;;;;;5054985;28;20051;-88
2023/12/08 10:45:01;;;;;;;31.15;18.17;;;;;;;;;;5054031;28;20048;-88
2023/12/08 10:47:27;;;;;;;34.58;18.13;;;;;;;;;;5037531;28;20056;-89
2023/12/08 10:49:54;;;;;;;31.25;18.67;;;;;;;;;;5037723;28;20043;-88
2023/12/08 10:52:22;;;;;;;34.75;19.17;;;;;;;;;;5055829;28;20264;-86
2023/12/08 10:54:51;;;;;;;35.47;18.40;;;;;;;;;;5059606;28;20051;-88
2023/12/08 10:57:17;;;;;;;36.72;17.88;;;;;;;;;;5070914;28;20048;-87
2023/12/08 10:59:53;;;;;;;36.05;18.77;;;;;;;;;;5057902;28;20037;-88
2023/12/08 11:02:27;;;;;;;32.70;18.50;;;;;;;;;;5061035;28;20455;-86
2023/12/08 11:04:54;;;;;;;35.67;19.67;;;;;;;;;;5053343;28;20062;-85
2023/12/08 11:07:26;;;;;;;37.55;19.33;;;;;;;;;;5065582;28;20055;-87
2023/12/08 11:09:52;;;;;;;38.17;19.58;;;;;;;;;;5073278;28;20055;-86
2023/12/08 11:12:19;;;;;;;41.15;19.83;;;;;;;;;;5072898;28;20040;-86
2023/12/08 11:15:04;;;;;;;43.38;20.27;;;;;;;;;;5071759;28;20055;-88
2023/12/08 11:17:50;;;;;;;42.42;19.95;;;;;;;;;;5072890;28;20417;-87
2023/12/08 11:20:17;;;;;;;37.67;19.75;;;;;;;;;;5053485;28;20044;-86
2023/12/08 11:22:44;;;;;;;47.70;20.10;;;;;;;;;;5071962;28;20094;-86
2023/12/08 11:25:14;;;;;;;44.20;20.95;;;;;;;;;;5073041;28;20052;-87
2023/12/08 11:27:44;;;;;;;41.97;20.80;;;;;;;;;;5056751;28;20054;-86
2023/12/08 11:30:24;;;;;;;44.90;19.80;;;;;;;;;;5057868;28;20041;-87
2023/12/08 11:32:55;;;;;;;41.30;19.42;;;;;;;;;;5068415;28;20051;-87
2023/12/08 11:35:21;;;;;;;42.47;20.07;;;;;;;;;;5059608;28;20068;-87
2023/12/08 11:37:51;;;;;;;42.78;19.80;;;;;;;;;;5071806;28;20670;-87
2023/12/08 11:40:18;;;;;;;36.47;19.13;;;;;;;;;;5058218;28;20044;-88
2023/12/08 11:42:45;;;;;;;43.65;20.70;;;;;;;;;;5035972;28;20094;-87
2023/12/08 11:45:11;;;;;;;48.30;20.85;;;;;;;;;;5064267;28;20044;-88
2023/12/08 11:47:38;;;;;;;39.92;19.85;;;;;;;;;;5071566;28;20048;-87
2023/12/08 11:50:05;;;;;;;39.45;20.75;;;;;;;;;;5057354;28;20055;-86
2023/12/08 11:52:35;;;;;;;43.13;20.27;;;;;;;;;;5057285;28;20459;-86
2023/12/08 11:55:20;;;;;;;42.33;20.17;;;;;;;;;;5055609;28;20052;-85
2023/12/08 11:57:49;;;;;;;43.15;21.70;;;;;;;;;;5067011;28;20055;-86
2023/12/08 12:00:22;;;;;;;43.00;21.50;;;;;;;;;;5068530;28;20079;-87
2023/12/08 12:02:49;;;;;;;42.80;20.17;;;;;;;;;;5064475;28;20483;-87
2023/12/08 12:05:15;;;;;;;42.90;21.77;;;;;;;;;;5056995;28;20075;-84
2023/12/08 12:07:45;;;;;;;44.47;21.30;;;;;;;;;;5071870;28;20448;-86
2023/12/08 12:10:12;;;;;;;41.08;19.92;;;;;;;;;;5072373;28;20081;-86
2023/12/08 12:12:44;;;;;;;50.33;21.58;;;;;;;;;;5054712;28;20494;-85
2023/12/08 12:15:10;;;;;;;46.92;21.58;;;;;;;;;;5072971;28;20494;-86
2023/12/08 12:17:38;;;;;;;44.13;20.50;;;;;;;;;;5071003;28;20050;-86
2023/12/08 12:20:04;;;;;;;41.88;20.92;;;;;;;;;;5069709;28;20040;-86
2023/12/08 12:22:30;;;;;;;37.08;20.45;;;;;;;;;;5071106;28;20079;-85
2023/12/08 12:24:56;;;;;;;49.72;21.23;;;;;;;;;;5070862;28;20094;-84
2023/12/08 12:27:22;;;;;;;47.75;21.50;;;;;;;;;;5054252;28;20504;-86
2023/12/08 12:29:48;;;;;;;45.67;20.80;;;;;;;;;;5051674;28;20454;-85
2023/12/08 12:32:14;;;;;;;44.50;20.80;;;;;;;;;;5051854;28;20497;-84
2023/12/08 12:34:40;;;;;;;51.25;23.48;;;;;;;;;;5081456;28;20060;-86
2023/12/08 12:37:07;;;;;;;44.05;20.42;;;;;;;;;;5054101;28;20058;-86
2023/12/08 12:39:34;;;;;;;39.13;21.10;;;;;;;;;;5068994;28;20131;-86
2023/12/08 12:42:06;;;;;;;41.17;20.20;;;;;;;;;;5069811;28;20074;-86
2023/12/08 12:44:32;;;;;;;;;;;;;;;;;;5070778;28;20072;-85
2023/12/08 12:46:58;;;;;;;42.20;20.20;;;;;;;;;;5069424;28;19920;-85
2023/12/08 12:49:24;;;;;;;41.60;21.15;;;;;;;;;;5060225;28;20084;-88
2023/12/08 12:51:52;;;;;;;49.15;22.05;;;;;;;;;;5051181;28;20049;-88
2023/12/08 12:54:42;;;;;;;72.15;23.27;;;;;;;;;;5052142;28;20078;-87
2023/12/08 12:57:08;;;;;;;44.25;20.80;;;;;;;;;;5052297;28;20044;-85
2023/12/08 12:59:34;;;;;;;51.88;21.85;;;;;;;;;;5067718;28;20521;-87
2023/12/08 13:02:01;;;;;;;54.50;21.67;;;;;;;;;;5057650;28;20044;-88
2023/12/08 13:04:28;;;;;;;49.47;22.95;;;;;;;;;;5052178;28;20048;-87
2023/12/08 13:06:54;;;;;;;61.83;22.70;;;;;;;;;;5053228;28;20515;-88
2023/12/08 13:09:29;;;;;;;53.28;21.40;;;;;;;;;;5070297;28;20126;-87
2023/12/08 13:11:54;;;;;;;46.75;22.20;;;;;;;;;;5070146;28;20105;-87
2023/12/08 13:14:20;;;;;;;50.63;21.60;;;;;;;;;;5068621;28;20052;-88
2023/12/08 13:16:47;;;;;;;62.00;23.17;;;;;;;;;;5039639;28;20047;-88
2023/12/08 13:19:14;;;;;;;52.58;21.85;;;;;;;;;;5050103;28;20406;-88
2023/12/08 13:21:40;;;;;;;52.70;22.70;;;;;;;;;;5048611;28;20140;-88
2023/12/08 13:24:08;;;;;;;50.83;22.40;;;;;;;;;;5052141;28;20043;-88
2023/12/08 13:26:34;;;;;;;51.75;21.98;;;;;;;;;;5055988;28;20048;-88
2023/12/08 13:29:01;;;;;;;45.90;22.05;;;;;;;;;;5056250;28;20040;-88
2023/12/08 13:31:27;;;;;;;63.80;24.02;;;;;;;;;;5070941;28;20091;-89
2023/12/08 13:33:53;;;;;;;54.85;23.17;;;;;;;;;;5056265;28;20125;-88
2023/12/08 13:36:19;;;;;;;57.15;24.02;;;;;;;;;;5072517;28;20504;-89
2023/12/08 13:38:45;;;;;;;55.65;22.77;;;;;;;;;;5055133;28;20055;-89
2023/12/08 13:41:11;;;;;;;53.00;20.50;;;;;;;;;;5072532;28;20048;-89
2023/12/08 13:43:38;;;;;;;53.53;24.60;;;;;;;;;;5071401;28;20047;-88
2023/12/08 13:46:04;;;;;;;60.72;23.80;;;;;;;;;;5066267;28;20517;-89
2023/12/08 13:48:30;;;;;;;59.00;22.13;;;;;;;;;;5055562;28;20044;-89
2023/12/08 13:50:56;;;;;;;56.72;22.90;;;;;;;;;;5055786;28;20044;-88
2023/12/08 13:53:22;;;;;;;48.20;22.27;;;;;;;;;;5054985;28;20116;-88
2023/12/08 13:55:48;;;;;;;63.58;23.30;;;;;;;;;;5075364;28;20066;-88
2023/12/08 13:58:14;;;;;;;65.85;24.67;;;;;;;;;;5072673;28;20489;-89
2023/12/08 14:00:40;;;;;;;50.90;22.08;;;;;;;;;;5072882;28;20498;-88
2023/12/08 14:03:09;;;;;;;80.35;23.65;;;;;;;;;;5072448;28;20047;-88
2023/12/08 14:05:35;;;;;;;50.95;23.10;;;;;;;;;;5051444;28;20063;-88
2023/12/08 14:08:01;;;;;;;71.18;24.52;;;;;;;;;;5050542;28;20052;-87
2023/12/08 14:10:27;;;;;;;66.32;22.33;;;;;;;;;;5051332;28;20059;-87
2023/12/08 14:12:55;;;;;;;60.55;22.80;;;;;;;;;;5050913;28;20510;-88
2023/12/08 14:15:21;;;;;;;84.07;24.05;;;;;;;;;;5060246;28;20070;-88